Time;durP1;ratioP1;P1;durP2;ratioP2;P2;SDS_P1;SDS_P2;PMS_P1;PMS_P2;Temp;Humidity;BMP_temperature;BMP_pressure;BME280_temperature;BME280_humidity;BME280_pressure;Samples;Min_cycle;Max_cycle;Signal;HPM_P1;HPM_P2
2022/12/05 00:01:39;;;;;;;17.63;11.93;;;;;;;3.66;100.00;99358.31;6237525;22;20208;-82
2022/12/05 00:04:14;;;;;;;16.90;11.57;;;;;;;3.72;100.00;99364.72;6258509;22;20204;-83
2022/12/05 00:06:45;;;;;;;25.27;16.50;;;;;;;3.61;100.00;99354.56;6233852;23;20208;-83
2022/12/05 00:09:16;;;;;;;20.07;12.97;;;;;;;3.52;100.00;99338.78;6216188;22;20196;-82
2022/12/05 00:11:50;;;;;;;29.40;16.90;;;;;;;3.60;100.00;99331.72;6231470;23;20193;-84
2022/12/05 00:14:20;;;;;;;17.73;12.57;;;;;;;3.51;100.00;99331.81;6299242;22;20259;-82
2022/12/05 00:16:49;;;;;;;14.53;11.03;;;;;;;3.48;100.00;99326.06;6227678;22;20211;-83
2022/12/05 00:19:18;;;;;;;14.13;10.93;;;;;;;3.43;100.00;99325.78;6278392;22;20234;-83
2022/12/05 00:21:48;;;;;;;15.33;10.67;;;;;;;3.44;100.00;99330.91;6277479;22;20208;-83
2022/12/05 00:24:24;;;;;;;14.63;10.80;;;;;;;3.35;100.00;99342.59;6301230;22;20200;-82
2022/12/05 00:26:52;;;;;;;12.93;10.53;;;;;;;3.36;100.00;99348.72;6277300;22;20210;-82
2022/12/05 00:29:19;;;;;;;14.67;11.80;;;;;;;3.25;100.00;99349.13;6274760;22;20231;-82
2022/12/05 00:31:49;;;;;;;14.20;10.30;;;;;;;3.27;100.00;99347.13;6297728;22;20212;-82
2022/12/05 00:34:17;;;;;;;14.27;10.83;;;;;;;3.20;100.00;99352.31;6269185;22;20214;-82
2022/12/05 01:56:58;;;;;;;10.30;8.10;;;;;;;2.66;100.00;99355.03;6294561;22;20286;-81
2022/12/05 01:59:26;;;;;;;7.93;6.80;;;;;;;2.66;100.00;99354.22;6249821;22;20211;-81
2022/12/05 02:02:00;;;;;;;8.57;6.57;;;;;;;2.65;100.00;99348.13;6276041;22;20212;-81
2022/12/05 05:17:36;;;;;;;11.03;8.73;;;;;;;1.69;100.00;99447.13;6282168;22;20203;-82
2022/12/05 08:20:15;;;;;;;11.70;9.83;;;;;;;3.79;100.00;99594.38;6231986;23;20216;-80
2022/12/05 08:22:42;;;;;;;13.73;9.97;;;;;;;3.81;100.00;99588.91;6206925;23;20213;-81
2022/12/05 08:25:09;;;;;;;15.23;11.87;;;;;;;3.85;100.00;99584.88;6181851;23;20261;-81
2022/12/05 08:27:36;;;;;;;11.30;9.93;;;;;;;3.95;100.00;99585.47;6196005;23;20209;-80
2022/12/05 08:30:14;;;;;;;13.17;9.73;;;;;;;4.05;100.00;99585.22;6185251;23;20166;-80
2022/12/05 08:32:43;;;;;;;13.07;9.63;;;;;;;4.04;100.00;99594.19;6178698;23;20257;-81
2022/12/05 08:35:25;;;;;;;13.83;9.73;;;;;;;4.01;100.00;99598.03;6163399;23;20194;-81
2022/12/05 08:37:58;;;;;;;13.30;9.60;;;;;;;4.04;100.00;99595.00;6235280;23;20220;-81
2022/12/05 11:03:29;;;;;;;15.20;11.63;;;;;;;5.63;100.00;99622.75;6262578;22;20231;-81
2022/12/05 11:06:00;;;;;;;15.60;11.23;;;;;;;5.58;100.00;99614.50;6242395;23;20215;-82
2022/12/05 18:57:14;;;;;;;15.93;13.27;;;;;;;3.69;100.00;99588.47;6242147;23;20209;-81
2022/12/05 18:59:41;;;;;;;17.37;13.97;;;;;;;3.72;100.00;99584.66;6223386;23;20232;-81
2022/12/05 19:02:08;;;;;;;15.13;12.23;;;;;;;3.81;100.00;99587.06;6259532;23;20212;-82
2022/12/05 19:04:35;;;;;;;15.33;12.23;;;;;;;3.78;100.00;99581.31;6244331;23;20236;-82
2022/12/05 19:07:01;;;;;;;13.27;11.10;;;;;;;3.75;100.00;99589.59;6268068;23;20212;-82
2022/12/05 19:09:34;;;;;;;16.43;13.77;;;;;;;3.78;100.00;99586.63;6241941;23;20255;-82
2022/12/05 19:12:18;;;;;;;16.90;14.13;;;;;;;3.77;100.00;99579.66;6253014;23;20220;-82
2022/12/05 19:14:55;;;;;;;14.67;12.27;;;;;;;3.82;100.00;99575.47;6260151;23;20684;-82
2022/12/05 19:17:25;;;;;;;15.43;12.40;;;;;;;3.82;100.00;99566.69;6241475;23;20189;-82
2022/12/05 19:19:57;;;;;;;14.40;12.80;;;;;;;3.80;100.00;99574.00;6263911;23;20260;-81
2022/12/05 19:22:26;;;;;;;19.07;14.77;;;;;;;3.81;100.00;99576.47;6254960;23;20211;-82
2022/12/05 19:24:52;;;;;;;16.50;14.27;;;;;;;3.80;100.00;99574.00;6261521;23;20234;-82
2022/12/05 19:27:19;;;;;;;15.77;13.03;;;;;;;3.76;100.00;99573.53;6259932;23;20205;-81
2022/12/05 19:29:48;;;;;;;16.03;13.87;;;;;;;3.81;100.00;99573.81;6263692;23;20207;-81
2022/12/05 19:32:15;;;;;;;16.90;14.97;;;;;;;3.84;100.00;99578.75;6231419;23;20223;-81
2022/12/05 19:34:41;;;;;;;22.93;20.27;;;;;;;3.83;100.00;99568.31;6262675;23;20256;-81
2022/12/05 19:37:08;;;;;;;21.87;16.57;;;;;;;3.84;100.00;99573.47;6267882;23;20200;-82
2022/12/05 19:39:35;;;;;;;21.03;18.97;;;;;;;3.90;100.00;99574.56;6267455;23;20215;-83
2022/12/05 19:51:13;;;;;;;18.37;16.37;;;;;;;3.83;100.00;99565.66;6255730;22;20215;-80
2022/12/05 19:53:43;;;;;;;18.53;16.13;;;;;;;3.86;100.00;99571.47;6254915;23;20227;-80
2022/12/05 19:56:18;;;;;;;17.17;14.43;;;;;;;3.86;100.00;99563.50;6229324;23;20720;-80
2022/12/05 19:58:46;;;;;;;17.20;14.87;;;;;;;3.80;100.00;99558.91;6254837;23;20206;-80
2022/12/05 20:01:12;;;;;;;17.00;13.30;;;;;;;3.75;100.00;99555.97;6233705;23;20193;-80
2022/12/05 20:03:48;;;;;;;16.57;13.77;;;;;;;3.74;100.00;99562.28;6259000;23;20220;-81
2022/12/05 20:06:20;;;;;;;15.60;12.83;;;;;;;3.74;100.00;99561.44;6259894;23;20208;-81
2022/12/05 20:08:49;;;;;;;18.07;14.33;;;;;;;3.67;100.00;99537.50;6257002;23;20335;-79
2022/12/05 20:11:20;;;;;;;20.37;15.07;;;;;;;3.74;100.00;99553.50;6258250;23;20283;-80
2022/12/05 20:13:47;;;;;;;18.20;15.27;;;;;;;3.73;100.00;99551.88;6233171;23;20242;-83
2022/12/05 20:16:22;;;;;;;18.07;15.17;;;;;;;3.75;100.00;99542.72;6243239;23;20204;-81
2022/12/05 20:18:49;;;;;;;22.50;15.00;;;;;;;3.71;100.00;99530.00;6266820;22;20232;-82
2022/12/05 20:21:23;;;;;;;21.33;16.37;;;;;;;3.72;100.00;99529.00;6263789;22;20236;-81
2022/12/05 20:23:51;;;;;;;22.37;18.17;;;;;;;3.78;100.00;99538.91;6233260;23;20212;-81
2022/12/05 20:26:23;;;;;;;26.37;20.80;;;;;;;3.85;100.00;99542.47;6233768;23;20215;-81
2022/12/05 20:28:50;;;;;;;24.17;19.47;;;;;;;3.76;100.00;99525.00;6259766;23;20197;-82
2022/12/05 20:31:22;;;;;;;22.50;17.80;;;;;;;3.70;100.00;99517.75;6259292;23;20223;-81
2022/12/05 20:33:50;;;;;;;21.37;16.00;;;;;;;3.74;100.00;99525.16;6206268;23;20234;-82
2022/12/05 20:36:19;;;;;;;20.50;15.40;;;;;;;3.82;100.00;99548.16;6232062;23;20264;-81
2022/12/05 20:38:46;;;;;;;22.80;16.13;;;;;;;3.77;100.00;99534.59;6234470;23;20208;-82
2022/12/05 20:41:17;;;;;;;19.50;15.27;;;;;;;3.77;100.00;99526.66;6236799;23;20212;-82
2022/12/05 20:43:50;;;;;;;20.00;15.23;;;;;;;3.78;100.00;99538.91;6236329;23;20205;-82
2022/12/05 20:46:19;;;;;;;18.47;14.23;;;;;;;3.77;100.00;99526.66;6262075;23;20287;-82
2022/12/05 20:48:48;;;;;;;16.90;13.07;;;;;;;3.75;100.00;99515.41;6209426;23;20208;-82
2022/12/05 20:51:18;;;;;;;15.20;12.10;;;;;;;3.76;100.00;99503.81;6232667;23;20208;-81
2022/12/05 20:53:45;;;;;;;14.70;12.10;;;;;;;3.84;100.00;99485.16;6231592;23;20212;-81
2022/12/05 20:56:32;;;;;;;13.50;11.60;;;;;;;3.72;100.00;99491.91;6229047;23;20272;-82
2022/12/05 20:59:01;;;;;;;14.63;11.30;;;;;;;3.75;100.00;99507.44;6229889;23;20208;-81
2022/12/05 21:01:31;;;;;;;13.73;11.67;;;;;;;3.81;100.00;99520.00;6229043;23;20209;-82
2022/12/05 21:03:58;;;;;;;14.43;12.43;;;;;;;3.78;100.00;99507.09;6238220;23;20235;-82
2022/12/05 21:06:28;;;;;;;13.83;11.73;;;;;;;3.73;100.00;99498.88;6217596;23;20508;-82
2022/12/05 21:08:57;;;;;;;14.23;12.07;;;;;;;3.81;100.00;99488.19;6243091;23;20257;-82
2022/12/05 21:11:25;;;;;;;14.47;12.03;;;;;;;3.75;100.00;99494.19;6215243;23;20197;-83
2022/12/05 21:13:55;;;;;;;16.40;12.70;;;;;;;3.79;100.00;99503.44;6226839;23;20204;-82
2022/12/05 21:16:23;;;;;;;15.67;12.53;;;;;;;3.75;100.00;99502.97;6231379;23;20231;-81
2022/12/05 21:18:51;;;;;;;16.87;12.33;;;;;;;3.74;100.00;99492.53;6208025;23;20673;-82
2022/12/05 21:21:23;;;;;;;14.30;11.50;;;;;;;3.74;100.00;99485.41;6208958;23;20209;-82
2022/12/05 21:24:00;;;;;;;14.97;12.17;;;;;;;3.72;100.00;99487.44;6231870;23;20205;-82
2022/12/05 21:26:29;;;;;;;14.03;11.47;;;;;;;3.77;100.00;99477.13;6206388;23;20540;-83
2022/12/05 21:28:57;;;;;;;14.43;11.53;;;;;;;3.81;100.00;99489.03;6236177;23;20227;-82
2022/12/05 21:31:27;;;;;;;13.20;10.97;;;;;;;3.76;100.00;99491.38;6235968;23;20226;-83
2022/12/05 21:33:57;;;;;;;16.17;11.70;;;;;;;3.81;100.00;99490.84;6236532;23;20216;-81
2022/12/05 22:00:08;;;;;;;12.77;10.20;;;;;;;3.70;100.00;99478.00;6257083;22;20235;-82
2022/12/05 22:02:35;;;;;;;13.33;10.13;;;;;;;3.68;100.00;99480.84;6234319;23;20205;-83
2022/12/05 22:05:02;;;;;;;12.70;9.87;;;;;;;3.64;100.00;99492.78;6187094;23;20209;-82
2022/12/05 22:07:29;;;;;;;14.20;9.67;;;;;;;3.68;100.00;99480.03;6190230;23;20201;-82
2022/12/05 22:09:58;;;;;;;12.40;9.73;;;;;;;3.69;100.00;99469.22;6238496;23;20219;-83
2022/12/05 22:12:26;;;;;;;12.87;10.17;;;;;;;3.64;100.00;99479.53;6195249;23;20200;-82
2022/12/05 22:14:53;;;;;;;12.87;9.30;;;;;;;3.62;100.00;99472.78;6231741;23;20306;-82
2022/12/05 22:17:33;;;;;;;12.47;9.67;;;;;;;3.77;100.00;99478.97;6233802;23;20256;-82
2022/12/05 22:20:09;;;;;;;12.13;9.73;;;;;;;3.73;100.00;99465.25;6182558;22;20204;-82
2022/12/05 22:57:30;;;;;;;13.47;10.47;;;;;;;3.64;100.00;99499.94;6250172;22;20219;-82
2022/12/05 22:59:57;;;;;;;14.17;11.40;;;;;;;3.59;100.00;99502.31;6197922;23;20202;-83
2022/12/05 23:02:24;;;;;;;15.40;11.63;;;;;;;3.61;100.00;99501.09;6258407;23;20228;-83
2022/12/05 23:04:51;;;;;;;15.37;11.07;;;;;;;3.59;100.00;99497.81;6261708;23;20231;-83
2022/12/05 23:07:18;;;;;;;13.10;11.03;;;;;;;3.59;100.00;99494.34;6237731;23;20239;-83
2022/12/05 23:09:45;;;;;;;14.77;11.77;;;;;;;3.55;100.00;99510.59;6241771;23;20188;-82
2022/12/05 23:12:14;;;;;;;15.00;10.80;;;;;;;3.55;100.00;99520.34;6237577;23;20205;-82
2022/12/05 23:14:40;;;;;;;12.63;10.47;;;;;;;3.47;100.00;99523.91;6209855;23;20252;-83
2022/12/05 23:17:07;;;;;;;14.60;10.70;;;;;;;3.57;100.00;99514.88;6208394;23;20219;-82
2022/12/05 23:19:34;;;;;;;14.40;11.13;;;;;;;3.48;100.00;99514.13;6257866;23;20516;-82
2022/12/05 23:22:01;;;;;;;13.50;10.97;;;;;;;3.46;100.00;99518.75;6233528;23;20213;-81
2022/12/05 23:24:28;;;;;;;13.50;10.87;;;;;;;3.46;100.00;99514.28;6231183;23;20200;-81
2022/12/05 23:26:54;;;;;;;13.67;10.70;;;;;;;3.49;100.00;99521.91;6246358;23;20204;-81
2022/12/05 23:29:21;;;;;;;14.23;11.50;;;;;;;3.51;100.00;99508.47;6245694;23;20209;-80
2022/12/05 23:31:48;;;;;;;14.67;11.57;;;;;;;3.55;100.00;99507.09;6245907;23;20207;-81
2022/12/05 23:34:14;;;;;;;15.17;12.40;;;;;;;3.54;100.00;99503.66;6245227;22;20654;-80
2022/12/05 23:36:41;;;;;;;15.30;12.60;;;;;;;3.56;100.00;99495.50;6246089;23;20296;-81
2022/12/05 23:39:08;;;;;;;16.93;12.63;;;;;;;3.53;100.00;99493.22;6245976;23;20284;-80
2022/12/05 23:41:34;;;;;;;14.63;12.17;;;;;;;3.54;100.00;99484.28;6245896;23;20215;-80
2022/12/05 23:44:01;;;;;;;15.90;12.47;;;;;;;3.47;100.00;99480.69;6245301;23;20276;-78
2022/12/05 23:46:28;;;;;;;15.23;12.00;;;;;;;3.58;100.00;99490.03;6246008;23;20197;-80
2022/12/05 23:48:56;;;;;;;13.83;11.17;;;;;;;3.52;100.00;99479.16;6218935;23;20205;-79
2022/12/05 23:51:26;;;;;;;50.63;35.37;;;;;;;3.34;100.00;99465.41;6251585;23;20283;-82
2022/12/05 23:53:54;;;;;;;16.10;13.93;;;;;;;3.29;100.00;99456.34;6249443;23;20200;-82
2022/12/05 23:56:23;;;;;;;13.67;11.57;;;;;;;3.26;100.00;99457.53;6220928;23;20595;-81
2022/12/05 23:58:50;;;;;;;13.57;10.83;;;;;;;3.23;100.00;99457.84;6248608;23;20295;-81
